sensor_id;sensor_type;location;lat;lon;timestamp;P1;durP1;ratioP1;P2;durP2;ratioP2
15982;SDS011;14442;50.196;8.096;2022-12-07T00:00:33;1.87;;;0.60;;
15982;SDS011;14442;50.196;8.096;2022-12-07T00:03:00;2.47;;;0.40;;
15982;SDS011;14442;50.196;8.096;2022-12-07T00:05:26;0.70;;;0.70;;
15982;SDS011;14442;50.196;8.096;2022-12-07T00:07:55;2.00;;;0.60;;
15982;SDS011;14442;50.196;8.096;2022-12-07T00:10:21;1.40;;;0.80;;
15982;SDS011;14442;50.196;8.096;2022-12-07T00:12:48;0.40;;;0.40;;
15982;SDS011;14442;50.196;8.096;2022-12-07T00:15:15;0.70;;;0.57;;
15982;SDS011;14442;50.196;8.096;2022-12-07T00:17:43;0.63;;;0.63;;
15982;SDS011;14442;50.196;8.096;2022-12-07T00:20:10;0.50;;;0.50;;
15982;SDS011;14442;50.196;8.096;2022-12-07T00:22:36;1.63;;;0.70;;
15982;SDS011;14442;50.196;8.096;2022-12-07T00:25:03;0.40;;;0.40;;
15982;SDS011;14442;50.196;8.096;2022-12-07T00:27:30;0.40;;;0.40;;
15982;SDS011;14442;50.196;8.096;2022-12-07T00:29:57;1.13;;;0.40;;
15982;SDS011;14442;50.196;8.096;2022-12-07T00:32:24;0.60;;;0.60;;
15982;SDS011;14442;50.196;8.096;2022-12-07T00:34:52;0.50;;;0.50;;
15982;SDS011;14442;50.196;8.096;2022-12-07T00:37:18;0.83;;;0.50;;
15982;SDS011;14442;50.196;8.096;2022-12-07T00:39:45;0.60;;;0.60;;
15982;SDS011;14442;50.196;8.096;2022-12-07T00:42:12;0.73;;;0.57;;
15982;SDS011;14442;50.196;8.096;2022-12-07T00:44:39;0.50;;;0.50;;
15982;SDS011;14442;50.196;8.096;2022-12-07T00:47:05;0.50;;;0.30;;
15982;SDS011;14442;50.196;8.096;2022-12-07T00:49:32;1.20;;;0.70;;
15982;SDS011;14442;50.196;8.096;2022-12-07T00:52:00;0.70;;;0.70;;
15982;SDS011;14442;50.196;8.096;2022-12-07T00:54:26;0.97;;;0.40;;
15982;SDS011;14442;50.196;8.096;2022-12-07T00:56:53;0.97;;;0.50;;
15982;SDS011;14442;50.196;8.096;2022-12-07T00:59:20;0.60;;;0.60;;
15982;SDS011;14442;50.196;8.096;2022-12-07T01:01:47;1.07;;;0.53;;
15982;SDS011;14442;50.196;8.096;2022-12-07T01:04:13;0.60;;;0.60;;
15982;SDS011;14442;50.196;8.096;2022-12-07T01:06:40;0.73;;;0.70;;
15982;SDS011;14442;50.196;8.096;2022-12-07T01:09:08;2.40;;;0.63;;
15982;SDS011;14442;50.196;8.096;2022-12-07T01:11:34;2.00;;;0.70;;
15982;SDS011;14442;50.196;8.096;2022-12-07T01:14:02;1.57;;;0.70;;
15982;SDS011;14442;50.196;8.096;2022-12-07T01:16:29;0.87;;;0.87;;
15982;SDS011;14442;50.196;8.096;2022-12-07T01:18:58;0.80;;;0.80;;
15982;SDS011;14442;50.196;8.096;2022-12-07T01:21:27;0.97;;;0.90;;
15982;SDS011;14442;50.196;8.096;2022-12-07T01:23:56;0.70;;;0.70;;
15982;SDS011;14442;50.196;8.096;2022-12-07T01:26:24;0.50;;;0.50;;
15982;SDS011;14442;50.196;8.096;2022-12-07T01:28:52;1.07;;;0.90;;
15982;SDS011;14442;50.196;8.096;2022-12-07T01:31:20;0.90;;;0.90;;
15982;SDS011;14442;50.196;8.096;2022-12-07T01:33:54;0.63;;;0.63;;
15982;SDS011;14442;50.196;8.096;2022-12-07T01:36:23;0.83;;;0.83;;
15982;SDS011;14442;50.196;8.096;2022-12-07T01:38:51;1.00;;;1.00;;
15982;SDS011;14442;50.196;8.096;2022-12-07T01:41:21;0.80;;;0.80;;
15982;SDS011;14442;50.196;8.096;2022-12-07T01:44:14;0.60;;;0.60;;
15982;SDS011;14442;50.196;8.096;2022-12-07T01:46:43;1.37;;;0.93;;
15982;SDS011;14442;50.196;8.096;2022-12-07T01:49:12;0.70;;;0.70;;
15982;SDS011;14442;50.196;8.096;2022-12-07T01:51:43;0.70;;;0.70;;
15982;SDS011;14442;50.196;8.096;2022-12-07T01:54:11;1.17;;;0.80;;
15982;SDS011;14442;50.196;8.096;2022-12-07T01:56:39;0.63;;;0.63;;
15982;SDS011;14442;50.196;8.096;2022-12-07T01:59:07;0.77;;;0.70;;
15982;SDS011;14442;50.196;8.096;2022-12-07T02:01:35;0.80;;;0.80;;
15982;SDS011;14442;50.196;8.096;2022-12-07T02:04:02;0.70;;;0.70;;
15982;SDS011;14442;50.196;8.096;2022-12-07T02:06:29;0.73;;;0.73;;
15982;SDS011;14442;50.196;8.096;2022-12-07T02:08:56;1.27;;;0.70;;
15982;SDS011;14442;50.196;8.096;2022-12-07T02:11:23;0.60;;;0.60;;
15982;SDS011;14442;50.196;8.096;2022-12-07T02:13:49;0.50;;;0.50;;
15982;SDS011;14442;50.196;8.096;2022-12-07T02:16:21;0.60;;;0.60;;
15982;SDS011;14442;50.196;8.096;2022-12-07T02:19:02;0.70;;;0.70;;
15982;SDS011;14442;50.196;8.096;2022-12-07T02:21:45;0.77;;;0.77;;
15982;SDS011;14442;50.196;8.096;2022-12-07T02:27:26;0.80;;;0.60;;
15982;SDS011;14442;50.196;8.096;2022-12-07T02:30:07;0.60;;;0.60;;
15982;SDS011;14442;50.196;8.096;2022-12-07T02:32:39;0.70;;;0.70;;
15982;SDS011;14442;50.196;8.096;2022-12-07T02:35:09;0.60;;;0.60;;
15982;SDS011;14442;50.196;8.096;2022-12-07T02:37:41;0.60;;;0.60;;
15982;SDS011;14442;50.196;8.096;2022-12-07T02:40:14;0.50;;;0.50;;
15982;SDS011;14442;50.196;8.096;2022-12-07T02:42:45;0.50;;;0.50;;
15982;SDS011;14442;50.196;8.096;2022-12-07T02:45:18;0.40;;;0.40;;
15982;SDS011;14442;50.196;8.096;2022-12-07T02:47:48;0.60;;;0.60;;
15982;SDS011;14442;50.196;8.096;2022-12-07T02:50:18;0.57;;;0.57;;
15982;SDS011;14442;50.196;8.096;2022-12-07T02:52:45;0.50;;;0.50;;
15982;SDS011;14442;50.196;8.096;2022-12-07T02:55:12;0.50;;;0.50;;
15982;SDS011;14442;50.196;8.096;2022-12-07T02:57:47;0.40;;;0.40;;
15982;SDS011;14442;50.196;8.096;2022-12-07T03:00:44;0.50;;;0.50;;
15982;SDS011;14442;50.196;8.096;2022-12-07T03:03:18;0.40;;;0.40;;
15982;SDS011;14442;50.196;8.096;2022-12-07T03:05:57;0.30;;;0.30;;
15982;SDS011;14442;50.196;8.096;2022-12-07T03:08:38;0.30;;;0.30;;
15982;SDS011;14442;50.196;8.096;2022-12-07T03:11:13;1.23;;;0.37;;
15982;SDS011;14442;50.196;8.096;2022-12-07T03:13:45;0.43;;;0.43;;
15982;SDS011;14442;50.196;8.096;2022-12-07T03:16:17;0.40;;;0.40;;
15982;SDS011;14442;50.196;8.096;2022-12-07T03:18:47;0.40;;;0.40;;
15982;SDS011;14442;50.196;8.096;2022-12-07T03:21:17;0.50;;;0.50;;
15982;SDS011;14442;50.196;8.096;2022-12-07T03:23:48;0.33;;;0.33;;
15982;SDS011;14442;50.196;8.096;2022-12-07T03:26:17;0.43;;;0.30;;
15982;SDS011;14442;50.196;8.096;2022-12-07T03:28:48;0.30;;;0.30;;
15982;SDS011;14442;50.196;8.096;2022-12-07T03:31:23;0.40;;;0.40;;
15982;SDS011;14442;50.196;8.096;2022-12-07T03:33:56;0.30;;;0.30;;
15982;SDS011;14442;50.196;8.096;2022-12-07T03:36:29;1.90;;;0.33;;
15982;SDS011;14442;50.196;8.096;2022-12-07T03:39:00;0.30;;;0.30;;
15982;SDS011;14442;50.196;8.096;2022-12-07T03:41:34;0.40;;;0.40;;
15982;SDS011;14442;50.196;8.096;2022-12-07T03:44:02;0.30;;;0.30;;
15982;SDS011;14442;50.196;8.096;2022-12-07T03:46:34;0.30;;;0.30;;
15982;SDS011;14442;50.196;8.096;2022-12-07T03:49:08;0.30;;;0.30;;
15982;SDS011;14442;50.196;8.096;2022-12-07T03:51:45;0.40;;;0.40;;
15982;SDS011;14442;50.196;8.096;2022-12-07T03:54:15;0.30;;;0.30;;
15982;SDS011;14442;50.196;8.096;2022-12-07T03:56:45;0.50;;;0.50;;
15982;SDS011;14442;50.196;8.096;2022-12-07T03:59:13;0.30;;;0.30;;
15982;SDS011;14442;50.196;8.096;2022-12-07T04:01:43;0.30;;;0.30;;
15982;SDS011;14442;50.196;8.096;2022-12-07T04:04:10;0.30;;;0.30;;
15982;SDS011;14442;50.196;8.096;2022-12-07T04:06:37;0.40;;;0.40;;
15982;SDS011;14442;50.196;8.096;2022-12-07T04:09:03;0.77;;;0.33;;
15982;SDS011;14442;50.196;8.096;2022-12-07T04:11:30;0.47;;;0.47;;
15982;SDS011;14442;50.196;8.096;2022-12-07T04:13:57;0.40;;;0.30;;
15982;SDS011;14442;50.196;8.096;2022-12-07T04:16:42;0.30;;;0.30;;
15982;SDS011;14442;50.196;8.096;2022-12-07T04:19:09;1.03;;;0.30;;
15982;SDS011;14442;50.196;8.096;2022-12-07T04:21:36;0.30;;;0.30;;
15982;SDS011;14442;50.196;8.096;2022-12-07T04:24:03;0.30;;;0.30;;
15982;SDS011;14442;50.196;8.096;2022-12-07T04:26:30;0.40;;;0.40;;
15982;SDS011;14442;50.196;8.096;2022-12-07T04:28:56;0.20;;;0.20;;
15982;SDS011;14442;50.196;8.096;2022-12-07T04:31:23;0.40;;;0.40;;
15982;SDS011;14442;50.196;8.096;2022-12-07T04:33:51;0.30;;;0.30;;
15982;SDS011;14442;50.196;8.096;2022-12-07T04:36:18;0.30;;;0.30;;
15982;SDS011;14442;50.196;8.096;2022-12-07T04:38:45;0.40;;;0.40;;
15982;SDS011;14442;50.196;8.096;2022-12-07T04:41:12;0.40;;;0.40;;
15982;SDS011;14442;50.196;8.096;2022-12-07T04:43:38;0.40;;;0.40;;
15982;SDS011;14442;50.196;8.096;2022-12-07T04:46:05;0.40;;;0.40;;
15982;SDS011;14442;50.196;8.096;2022-12-07T04:48:32;0.30;;;0.30;;
15982;SDS011;14442;50.196;8.096;2022-12-07T04:51:00;0.60;;;0.30;;
15982;SDS011;14442;50.196;8.096;2022-12-07T04:53:28;0.40;;;0.40;;
15982;SDS011;14442;50.196;8.096;2022-12-07T04:55:54;0.57;;;0.50;;
15982;SDS011;14442;50.196;8.096;2022-12-07T04:58:21;0.30;;;0.30;;
15982;SDS011;14442;50.196;8.096;2022-12-07T05:00:48;0.40;;;0.40;;
15982;SDS011;14442;50.196;8.096;2022-12-07T05:03:14;0.40;;;0.40;;
15982;SDS011;14442;50.196;8.096;2022-12-07T05:05:41;0.20;;;0.20;;
15982;SDS011;14442;50.196;8.096;2022-12-07T05:08:09;0.40;;;0.40;;
15982;SDS011;14442;50.196;8.096;2022-12-07T05:10:36;0.30;;;0.30;;
15982;SDS011;14442;50.196;8.096;2022-12-07T05:13:02;0.77;;;0.40;;
15982;SDS011;14442;50.196;8.096;2022-12-07T05:15:29;0.37;;;0.37;;
15982;SDS011;14442;50.196;8.096;2022-12-07T05:17:55;0.50;;;0.50;;
15982;SDS011;14442;50.196;8.096;2022-12-07T05:20:22;0.30;;;0.30;;
15982;SDS011;14442;50.196;8.096;2022-12-07T05:22:49;0.43;;;0.43;;
15982;SDS011;14442;50.196;8.096;2022-12-07T05:25:17;0.30;;;0.30;;
15982;SDS011;14442;50.196;8.096;2022-12-07T05:27:43;0.40;;;0.40;;
15982;SDS011;14442;50.196;8.096;2022-12-07T05:30:10;0.17;;;0.17;;
15982;SDS011;14442;50.196;8.096;2022-12-07T05:32:38;0.30;;;0.30;;
15982;SDS011;14442;50.196;8.096;2022-12-07T05:35:05;0.40;;;0.40;;
15982;SDS011;14442;50.196;8.096;2022-12-07T05:37:32;0.40;;;0.40;;
15982;SDS011;14442;50.196;8.096;2022-12-07T05:39:58;0.30;;;0.30;;
15982;SDS011;14442;50.196;8.096;2022-12-07T05:42:26;0.70;;;0.40;;
15982;SDS011;14442;50.196;8.096;2022-12-07T05:44:53;0.40;;;0.40;;
15982;SDS011;14442;50.196;8.096;2022-12-07T05:47:20;0.30;;;0.30;;
15982;SDS011;14442;50.196;8.096;2022-12-07T05:49:47;0.30;;;0.30;;
15982;SDS011;14442;50.196;8.096;2022-12-07T05:52:13;0.50;;;0.50;;
15982;SDS011;14442;50.196;8.096;2022-12-07T05:54:40;0.20;;;0.20;;
15982;SDS011;14442;50.196;8.096;2022-12-07T05:57:07;0.30;;;0.30;;
15982;SDS011;14442;50.196;8.096;2022-12-07T05:59:35;0.47;;;0.40;;
15982;SDS011;14442;50.196;8.096;2022-12-07T06:02:01;0.40;;;0.40;;
15982;SDS011;14442;50.196;8.096;2022-12-07T06:04:31;0.30;;;0.30;;
15982;SDS011;14442;50.196;8.096;2022-12-07T06:06:58;0.40;;;0.40;;
15982;SDS011;14442;50.196;8.096;2022-12-07T06:09:26;0.37;;;0.37;;
15982;SDS011;14442;50.196;8.096;2022-12-07T06:11:54;0.60;;;0.40;;
15982;SDS011;14442;50.196;8.096;2022-12-07T06:14:40;0.40;;;0.40;;
15982;SDS011;14442;50.196;8.096;2022-12-07T06:17:07;0.40;;;0.40;;
15982;SDS011;14442;50.196;8.096;2022-12-07T06:19:35;0.50;;;0.50;;
15982;SDS011;14442;50.196;8.096;2022-12-07T06:22:02;0.50;;;0.50;;
15982;SDS011;14442;50.196;8.096;2022-12-07T06:24:29;2.10;;;0.67;;
15982;SDS011;14442;50.196;8.096;2022-12-07T06:26:56;0.40;;;0.40;;
15982;SDS011;14442;50.196;8.096;2022-12-07T06:29:23;0.40;;;0.40;;
15982;SDS011;14442;50.196;8.096;2022-12-07T06:31:51;0.30;;;0.30;;
15982;SDS011;14442;50.196;8.096;2022-12-07T06:34:19;0.50;;;0.50;;
15982;SDS011;14442;50.196;8.096;2022-12-07T06:36:47;0.30;;;0.30;;
15982;SDS011;14442;50.196;8.096;2022-12-07T06:39:16;0.30;;;0.30;;
15982;SDS011;14442;50.196;8.096;2022-12-07T06:41:43;0.40;;;0.40;;
15982;SDS011;14442;50.196;8.096;2022-12-07T06:44:10;0.40;;;0.40;;
15982;SDS011;14442;50.196;8.096;2022-12-07T06:46:37;0.30;;;0.30;;
15982;SDS011;14442;50.196;8.096;2022-12-07T06:49:05;0.30;;;0.30;;
15982;SDS011;14442;50.196;8.096;2022-12-07T06:51:32;0.30;;;0.30;;
15982;SDS011;14442;50.196;8.096;2022-12-07T06:54:00;0.30;;;0.30;;
15982;SDS011;14442;50.196;8.096;2022-12-07T06:56:26;0.97;;;0.40;;
15982;SDS011;14442;50.196;8.096;2022-12-07T06:58:53;0.63;;;0.40;;
15982;SDS011;14442;50.196;8.096;2022-12-07T07:01:20;0.43;;;0.43;;
15982;SDS011;14442;50.196;8.096;2022-12-07T07:03:47;0.30;;;0.30;;
15982;SDS011;14442;50.196;8.096;2022-12-07T07:06:15;0.20;;;0.20;;
15982;SDS011;14442;50.196;8.096;2022-12-07T07:08:41;0.37;;;0.23;;
15982;SDS011;14442;50.196;8.096;2022-12-07T07:11:08;0.67;;;0.40;;
15982;SDS011;14442;50.196;8.096;2022-12-07T07:13:36;0.30;;;0.30;;
15982;SDS011;14442;50.196;8.096;2022-12-07T07:16:03;0.40;;;0.30;;
15982;SDS011;14442;50.196;8.096;2022-12-07T07:18:30;1.80;;;0.50;;
15982;SDS011;14442;50.196;8.096;2022-12-07T07:20:57;3.23;;;0.40;;
15982;SDS011;14442;50.196;8.096;2022-12-07T07:23:25;0.40;;;0.40;;
15982;SDS011;14442;50.196;8.096;2022-12-07T07:25:52;0.30;;;0.30;;
15982;SDS011;14442;50.196;8.096;2022-12-07T07:28:19;0.50;;;0.40;;
15982;SDS011;14442;50.196;8.096;2022-12-07T07:30:46;1.20;;;0.50;;
15982;SDS011;14442;50.196;8.096;2022-12-07T07:33:12;1.03;;;0.30;;
15982;SDS011;14442;50.196;8.096;2022-12-07T07:35:40;0.50;;;0.50;;
15982;SDS011;14442;50.196;8.096;2022-12-07T07:38:06;0.63;;;0.40;;
15982;SDS011;14442;50.196;8.096;2022-12-07T07:40:35;0.50;;;0.50;;
15982;SDS011;14442;50.196;8.096;2022-12-07T07:43:02;1.60;;;0.60;;
15982;SDS011;14442;50.196;8.096;2022-12-07T07:45:28;0.67;;;0.50;;
15982;SDS011;14442;50.196;8.096;2022-12-07T07:47:55;2.40;;;0.60;;
15982;SDS011;14442;50.196;8.096;2022-12-07T07:50:22;0.80;;;0.63;;
15982;SDS011;14442;50.196;8.096;2022-12-07T07:52:49;0.40;;;0.40;;
15982;SDS011;14442;50.196;8.096;2022-12-07T07:55:15;1.13;;;0.67;;
15982;SDS011;14442;50.196;8.096;2022-12-07T07:57:44;0.40;;;0.40;;
15982;SDS011;14442;50.196;8.096;2022-12-07T08:00:11;2.23;;;0.67;;
15982;SDS011;14442;50.196;8.096;2022-12-07T08:02:39;0.93;;;0.57;;
15982;SDS011;14442;50.196;8.096;2022-12-07T08:05:08;1.23;;;0.50;;
15982;SDS011;14442;50.196;8.096;2022-12-07T08:07:35;1.73;;;0.70;;
15982;SDS011;14442;50.196;8.096;2022-12-07T08:10:02;2.63;;;0.73;;
15982;SDS011;14442;50.196;8.096;2022-12-07T08:12:29;3.70;;;0.80;;
15982;SDS011;14442;50.196;8.096;2022-12-07T08:14:57;4.37;;;0.70;;
15982;SDS011;14442;50.196;8.096;2022-12-07T08:17:24;3.43;;;0.63;;
15982;SDS011;14442;50.196;8.096;2022-12-07T08:19:50;3.27;;;0.80;;
15982;SDS011;14442;50.196;8.096;2022-12-07T08:22:17;2.97;;;0.60;;
15982;SDS011;14442;50.196;8.096;2022-12-07T08:24:44;3.20;;;0.90;;
15982;SDS011;14442;50.196;8.096;2022-12-07T08:27:10;2.77;;;0.60;;
15982;SDS011;14442;50.196;8.096;2022-12-07T08:29:37;2.40;;;0.87;;
15982;SDS011;14442;50.196;8.096;2022-12-07T08:32:05;5.67;;;1.00;;
15982;SDS011;14442;50.196;8.096;2022-12-07T08:34:32;3.03;;;0.60;;
15982;SDS011;14442;50.196;8.096;2022-12-07T08:36:59;3.53;;;0.67;;
15982;SDS011;14442;50.196;8.096;2022-12-07T08:39:25;1.43;;;0.80;;
15982;SDS011;14442;50.196;8.096;2022-12-07T08:41:52;3.93;;;0.53;;
15982;SDS011;14442;50.196;8.096;2022-12-07T08:44:19;0.93;;;0.50;;
15982;SDS011;14442;50.196;8.096;2022-12-07T08:46:46;3.23;;;0.67;;
15982;SDS011;14442;50.196;8.096;2022-12-07T08:49:18;2.37;;;0.60;;
15982;SDS011;14442;50.196;8.096;2022-12-07T08:51:49;2.70;;;0.60;;
15982;SDS011;14442;50.196;8.096;2022-12-07T08:54:16;1.83;;;1.07;;
15982;SDS011;14442;50.196;8.096;2022-12-07T08:56:44;2.53;;;0.57;;
15982;SDS011;14442;50.196;8.096;2022-12-07T08:59:12;0.73;;;0.40;;
15982;SDS011;14442;50.196;8.096;2022-12-07T09:01:41;2.53;;;0.70;;
15982;SDS011;14442;50.196;8.096;2022-12-07T09:04:08;0.93;;;0.50;;
15982;SDS011;14442;50.196;8.096;2022-12-07T09:06:37;1.70;;;0.70;;
15982;SDS011;14442;50.196;8.096;2022-12-07T09:09:04;0.60;;;0.60;;
15982;SDS011;14442;50.196;8.096;2022-12-07T09:11:31;0.97;;;0.40;;
15982;SDS011;14442;50.196;8.096;2022-12-07T09:13:58;0.90;;;0.60;;
15982;SDS011;14442;50.196;8.096;2022-12-07T09:16:25;0.77;;;0.50;;
15982;SDS011;14442;50.196;8.096;2022-12-07T09:18:51;0.97;;;0.50;;
15982;SDS011;14442;50.196;8.096;2022-12-07T09:21:18;0.47;;;0.30;;
15982;SDS011;14442;50.196;8.096;2022-12-07T09:23:46;3.50;;;0.47;;
15982;SDS011;14442;50.196;8.096;2022-12-07T09:26:13;2.10;;;0.70;;
15982;SDS011;14442;50.196;8.096;2022-12-07T09:28:39;1.70;;;0.40;;
15982;SDS011;14442;50.196;8.096;2022-12-07T09:31:06;0.30;;;0.30;;
15982;SDS011;14442;50.196;8.096;2022-12-07T09:33:33;2.13;;;0.30;;
15982;SDS011;14442;50.196;8.096;2022-12-07T09:35:59;0.60;;;0.40;;
15982;SDS011;14442;50.196;8.096;2022-12-07T09:38:27;0.90;;;0.30;;
15982;SDS011;14442;50.196;8.096;2022-12-07T09:40:55;0.93;;;0.60;;
15982;SDS011;14442;50.196;8.096;2022-12-07T09:43:23;0.77;;;0.47;;
15982;SDS011;14442;50.196;8.096;2022-12-07T09:45:52;1.27;;;0.57;;
15982;SDS011;14442;50.196;8.096;2022-12-07T09:48:20;1.23;;;0.50;;
15982;SDS011;14442;50.196;8.096;2022-12-07T09:50:50;0.73;;;0.50;;
15982;SDS011;14442;50.196;8.096;2022-12-07T09:53:23;0.83;;;0.40;;
15982;SDS011;14442;50.196;8.096;2022-12-07T09:55:52;2.17;;;0.60;;
15982;SDS011;14442;50.196;8.096;2022-12-07T09:58:22;0.40;;;0.40;;
15982;SDS011;14442;50.196;8.096;2022-12-07T10:00:52;0.73;;;0.47;;
15982;SDS011;14442;50.196;8.096;2022-12-07T10:03:21;0.70;;;0.30;;
15982;SDS011;14442;50.196;8.096;2022-12-07T10:05:49;2.30;;;0.30;;
15982;SDS011;14442;50.196;8.096;2022-12-07T10:08:17;0.47;;;0.40;;
15982;SDS011;14442;50.196;8.096;2022-12-07T10:10:44;1.40;;;0.40;;
15982;SDS011;14442;50.196;8.096;2022-12-07T10:13:18;1.87;;;0.40;;
15982;SDS011;14442;50.196;8.096;2022-12-07T10:15:49;1.63;;;0.50;;
15982;SDS011;14442;50.196;8.096;2022-12-07T10:18:19;1.00;;;0.50;;
15982;SDS011;14442;50.196;8.096;2022-12-07T10:21:00;1.50;;;0.30;;
15982;SDS011;14442;50.196;8.096;2022-12-07T10:23:38;2.77;;;0.50;;
15982;SDS011;14442;50.196;8.096;2022-12-07T10:28:56;1.37;;;0.40;;
15982;SDS011;14442;50.196;8.096;2022-12-07T10:31:27;4.20;;;0.40;;
15982;SDS011;14442;50.196;8.096;2022-12-07T10:33:55;2.20;;;0.40;;
15982;SDS011;14442;50.196;8.096;2022-12-07T10:36:24;6.30;;;0.43;;
15982;SDS011;14442;50.196;8.096;2022-12-07T10:38:52;1.67;;;0.40;;
15982;SDS011;14442;50.196;8.096;2022-12-07T10:41:25;2.43;;;0.57;;
15982;SDS011;14442;50.196;8.096;2022-12-07T10:43:53;1.80;;;0.50;;
15982;SDS011;14442;50.196;8.096;2022-12-07T10:46:43;3.77;;;0.57;;
15982;SDS011;14442;50.196;8.096;2022-12-07T10:49:30;2.40;;;0.43;;
15982;SDS011;14442;50.196;8.096;2022-12-07T10:52:10;5.20;;;0.50;;
15982;SDS011;14442;50.196;8.096;2022-12-07T10:54:48;1.03;;;0.40;;
15982;SDS011;14442;50.196;8.096;2022-12-07T10:57:32;1.63;;;0.50;;
15982;SDS011;14442;50.196;8.096;2022-12-07T11:00:11;2.90;;;0.40;;
15982;SDS011;14442;50.196;8.096;2022-12-07T11:02:57;2.87;;;0.77;;
15982;SDS011;14442;50.196;8.096;2022-12-07T11:05:39;3.47;;;0.60;;
15982;SDS011;14442;50.196;8.096;2022-12-07T11:08:13;1.47;;;0.70;;
15982;SDS011;14442;50.196;8.096;2022-12-07T11:10:48;0.87;;;0.40;;
15982;SDS011;14442;50.196;8.096;2022-12-07T11:13:26;0.53;;;0.40;;
15982;SDS011;14442;50.196;8.096;2022-12-07T11:16:02;1.50;;;0.30;;
15982;SDS011;14442;50.196;8.096;2022-12-07T11:18:38;0.60;;;0.30;;
15982;SDS011;14442;50.196;8.096;2022-12-07T11:21:17;1.37;;;0.40;;
15982;SDS011;14442;50.196;8.096;2022-12-07T11:23:52;4.67;;;0.63;;
15982;SDS011;14442;50.196;8.096;2022-12-07T11:26:32;2.10;;;0.57;;
15982;SDS011;14442;50.196;8.096;2022-12-07T11:29:21;0.83;;;0.40;;
15982;SDS011;14442;50.196;8.096;2022-12-07T11:31:58;1.63;;;0.30;;
15982;SDS011;14442;50.196;8.096;2022-12-07T11:34:37;3.60;;;0.50;;
15982;SDS011;14442;50.196;8.096;2022-12-07T11:37:13;0.63;;;0.30;;
15982;SDS011;14442;50.196;8.096;2022-12-07T11:39:44;0.80;;;0.30;;
15982;SDS011;14442;50.196;8.096;2022-12-07T11:42:19;1.47;;;0.40;;
15982;SDS011;14442;50.196;8.096;2022-12-07T11:44:50;3.40;;;0.40;;
15982;SDS011;14442;50.196;8.096;2022-12-07T11:47:22;1.70;;;0.50;;
15982;SDS011;14442;50.196;8.096;2022-12-07T11:49:58;3.53;;;0.57;;
15982;SDS011;14442;50.196;8.096;2022-12-07T11:52:32;2.57;;;0.77;;
15982;SDS011;14442;50.196;8.096;2022-12-07T11:55:14;5.17;;;0.43;;
15982;SDS011;14442;50.196;8.096;2022-12-07T11:57:46;4.30;;;0.60;;
15982;SDS011;14442;50.196;8.096;2022-12-07T12:00:17;3.90;;;0.80;;
15982;SDS011;14442;50.196;8.096;2022-12-07T12:02:46;3.20;;;0.50;;
15982;SDS011;14442;50.196;8.096;2022-12-07T12:05:21;4.33;;;0.50;;
15982;SDS011;14442;50.196;8.096;2022-12-07T12:07:50;3.00;;;0.70;;
15982;SDS011;14442;50.196;8.096;2022-12-07T12:10:26;1.40;;;0.57;;
15982;SDS011;14442;50.196;8.096;2022-12-07T12:13:14;0.93;;;0.60;;
15982;SDS011;14442;50.196;8.096;2022-12-07T12:16:05;3.27;;;0.40;;
15982;SDS011;14442;50.196;8.096;2022-12-07T12:18:51;1.13;;;0.43;;
15982;SDS011;14442;50.196;8.096;2022-12-07T12:21:27;2.07;;;0.50;;
15982;SDS011;14442;50.196;8.096;2022-12-07T12:23:56;4.37;;;0.43;;
15982;SDS011;14442;50.196;8.096;2022-12-07T12:26:26;2.37;;;0.70;;
15982;SDS011;14442;50.196;8.096;2022-12-07T12:28:56;2.37;;;0.50;;
15982;SDS011;14442;50.196;8.096;2022-12-07T12:31:35;3.03;;;0.60;;
15982;SDS011;14442;50.196;8.096;2022-12-07T12:36:58;0.90;;;0.40;;
15982;SDS011;14442;50.196;8.096;2022-12-07T12:39:25;0.93;;;0.30;;
15982;SDS011;14442;50.196;8.096;2022-12-07T12:41:53;0.77;;;0.50;;
15982;SDS011;14442;50.196;8.096;2022-12-07T12:47:43;3.37;;;0.40;;
15982;SDS011;14442;50.196;8.096;2022-12-07T12:50:19;1.03;;;0.40;;
15982;SDS011;14442;50.196;8.096;2022-12-07T12:52:54;1.73;;;0.50;;
15982;SDS011;14442;50.196;8.096;2022-12-07T12:58:30;7.43;;;0.80;;
15982;SDS011;14442;50.196;8.096;2022-12-07T13:04:16;3.60;;;0.70;;
15982;SDS011;14442;50.196;8.096;2022-12-07T13:06:55;5.80;;;0.80;;
15982;SDS011;14442;50.196;8.096;2022-12-07T13:09:24;3.53;;;0.50;;
15982;SDS011;14442;50.196;8.096;2022-12-07T13:11:57;1.00;;;0.57;;
15982;SDS011;14442;50.196;8.096;2022-12-07T13:14:40;3.73;;;0.90;;
15982;SDS011;14442;50.196;8.096;2022-12-07T13:17:09;4.83;;;0.80;;
15982;SDS011;14442;50.196;8.096;2022-12-07T13:25:21;2.47;;;0.80;;
15982;SDS011;14442;50.196;8.096;2022-12-07T13:28:04;7.13;;;0.90;;
15982;SDS011;14442;50.196;8.096;2022-12-07T13:30:43;2.83;;;0.90;;
15982;SDS011;14442;50.196;8.096;2022-12-07T13:33:16;3.37;;;0.80;;
15982;SDS011;14442;50.196;8.096;2022-12-07T13:35:44;0.73;;;0.60;;
15982;SDS011;14442;50.196;8.096;2022-12-07T13:38:22;1.83;;;0.70;;
15982;SDS011;14442;50.196;8.096;2022-12-07T13:41:00;0.70;;;0.50;;
15982;SDS011;14442;50.196;8.096;2022-12-07T13:43:42;6.93;;;1.37;;
15982;SDS011;14442;50.196;8.096;2022-12-07T13:46:10;4.97;;;1.00;;
15982;SDS011;14442;50.196;8.096;2022-12-07T13:48:43;4.00;;;0.77;;
15982;SDS011;14442;50.196;8.096;2022-12-07T13:51:16;5.43;;;0.77;;
15982;SDS011;14442;50.196;8.096;2022-12-07T13:53:46;2.97;;;0.70;;
15982;SDS011;14442;50.196;8.096;2022-12-07T13:56:14;4.33;;;1.33;;
15982;SDS011;14442;50.196;8.096;2022-12-07T13:58:41;2.37;;;1.13;;
15982;SDS011;14442;50.196;8.096;2022-12-07T14:01:09;2.90;;;1.47;;
15982;SDS011;14442;50.196;8.096;2022-12-07T14:03:38;3.63;;;1.00;;
15982;SDS011;14442;50.196;8.096;2022-12-07T14:06:16;1.47;;;1.00;;
15982;SDS011;14442;50.196;8.096;2022-12-07T14:08:46;1.47;;;0.87;;
15982;SDS011;14442;50.196;8.096;2022-12-07T14:11:15;1.97;;;0.83;;
15982;SDS011;14442;50.196;8.096;2022-12-07T14:13:47;2.67;;;0.90;;
15982;SDS011;14442;50.196;8.096;2022-12-07T14:16:23;4.73;;;1.13;;
15982;SDS011;14442;50.196;8.096;2022-12-07T14:18:52;2.67;;;0.80;;
15982;SDS011;14442;50.196;8.096;2022-12-07T14:21:21;2.10;;;0.87;;
15982;SDS011;14442;50.196;8.096;2022-12-07T14:24:08;2.07;;;0.80;;
15982;SDS011;14442;50.196;8.096;2022-12-07T14:26:43;2.93;;;1.03;;
15982;SDS011;14442;50.196;8.096;2022-12-07T14:29:22;1.60;;;0.67;;
15982;SDS011;14442;50.196;8.096;2022-12-07T14:31:57;2.07;;;1.00;;
15982;SDS011;14442;50.196;8.096;2022-12-07T14:34:30;3.40;;;0.67;;
15982;SDS011;14442;50.196;8.096;2022-12-07T14:36:57;1.40;;;0.77;;
15982;SDS011;14442;50.196;8.096;2022-12-07T14:39:23;2.63;;;1.03;;
15982;SDS011;14442;50.196;8.096;2022-12-07T14:41:51;1.83;;;0.60;;
15982;SDS011;14442;50.196;8.096;2022-12-07T14:44:18;2.17;;;0.80;;
15982;SDS011;14442;50.196;8.096;2022-12-07T14:46:46;1.27;;;0.77;;
15982;SDS011;14442;50.196;8.096;2022-12-07T14:49:12;1.20;;;0.80;;
15982;SDS011;14442;50.196;8.096;2022-12-07T14:51:39;0.83;;;0.60;;
15982;SDS011;14442;50.196;8.096;2022-12-07T14:54:11;1.03;;;0.70;;
15982;SDS011;14442;50.196;8.096;2022-12-07T14:56:42;4.23;;;1.00;;
15982;SDS011;14442;50.196;8.096;2022-12-07T14:59:10;0.73;;;0.67;;
15982;SDS011;14442;50.196;8.096;2022-12-07T15:01:37;0.70;;;0.67;;
15982;SDS011;14442;50.196;8.096;2022-12-07T15:04:04;0.90;;;0.90;;
15982;SDS011;14442;50.196;8.096;2022-12-07T15:06:31;0.57;;;0.57;;
15982;SDS011;14442;50.196;8.096;2022-12-07T15:08:58;0.80;;;0.80;;
15982;SDS011;14442;50.196;8.096;2022-12-07T15:11:24;0.93;;;0.80;;
15982;SDS011;14442;50.196;8.096;2022-12-07T15:13:51;3.00;;;1.00;;
15982;SDS011;14442;50.196;8.096;2022-12-07T15:16:39;1.00;;;0.93;;
15982;SDS011;14442;50.196;8.096;2022-12-07T15:19:10;1.23;;;1.13;;
15982;SDS011;14442;50.196;8.096;2022-12-07T15:21:39;2.30;;;1.07;;
15982;SDS011;14442;50.196;8.096;2022-12-07T15:24:07;0.87;;;0.50;;
15982;SDS011;14442;50.196;8.096;2022-12-07T15:26:35;2.10;;;1.13;;
15982;SDS011;14442;50.196;8.096;2022-12-07T15:29:02;1.63;;;0.93;;